createdAt,value
2018-05-29T00:02:09.521Z,21.90
2018-05-29T00:04:37.076Z,21.90
2018-05-29T00:07:04.552Z,22.00
2018-05-29T00:09:33.580Z,21.70
2018-05-29T00:12:01.124Z,21.70
2018-05-29T00:14:29.541Z,21.60
2018-05-29T00:16:57.059Z,21.60
2018-05-29T00:19:24.591Z,21.50
2018-05-29T00:21:52.150Z,21.60
2018-05-29T00:24:19.749Z,21.50
2018-05-29T00:26:47.269Z,21.60
2018-05-29T00:29:16.361Z,21.50
2018-05-29T00:31:43.973Z,21.50
2018-05-29T00:34:11.508Z,21.40
2018-05-29T00:36:39.824Z,21.40
2018-05-29T00:39:07.381Z,21.40
2018-05-29T00:41:34.899Z,21.30
2018-05-29T00:44:02.449Z,21.40
2018-05-29T00:46:30.761Z,21.30
2018-05-29T00:48:58.280Z,21.30
2018-05-29T00:51:26.613Z,21.10
2018-05-29T00:53:54.141Z,21.10
2018-05-29T00:56:21.657Z,21.10
2018-05-29T00:58:49.188Z,21.10
2018-05-29T01:01:16.724Z,21.10
2018-05-29T01:03:44.258Z,21.10
2018-05-29T01:06:12.575Z,21.00
2018-05-29T01:08:40.102Z,20.90
2018-05-29T01:11:07.628Z,21.00
2018-05-29T01:13:35.193Z,20.90
2018-05-29T01:16:03.487Z,20.90
2018-05-29T01:18:31.025Z,20.90
2018-05-29T01:20:58.571Z,20.90
2018-05-29T01:23:26.132Z,20.90
2018-05-29T01:25:53.956Z,20.70
2018-05-29T01:28:21.519Z,20.70
2018-05-29T01:30:49.097Z,20.80
2018-05-29T01:33:16.637Z,20.70
2018-05-29T01:35:44.180Z,20.60
2018-05-29T01:38:11.744Z,20.60
2018-05-29T01:40:39.292Z,20.60
2018-05-29T01:43:07.062Z,20.60
2018-05-29T01:45:34.580Z,20.60
2018-05-29T01:48:02.868Z,20.60
2018-05-29T01:50:31.179Z,20.50
2018-05-29T01:52:58.690Z,20.50
2018-05-29T01:55:26.245Z,20.40
2018-05-29T01:57:53.780Z,20.40
2018-05-29T02:00:21.356Z,20.40
2018-05-29T02:02:48.857Z,20.40
2018-05-29T02:05:16.388Z,20.40
2018-05-29T02:07:44.724Z,20.30
2018-05-29T02:10:12.228Z,20.30
2018-05-29T02:12:40.500Z,20.20
2018-05-29T02:15:08.812Z,20.10
2018-05-29T02:17:36.364Z,20.10
2018-05-29T02:20:04.001Z,20.10
2018-05-29T02:22:31.517Z,20.10
2018-05-29T02:24:59.027Z,20.10
2018-05-29T02:27:26.554Z,20.20
2018-05-29T02:29:54.854Z,20.10
2018-05-29T02:32:22.446Z,20.00
2018-05-29T02:34:49.962Z,20.00
2018-05-29T02:37:18.457Z,19.90
2018-05-29T02:39:45.998Z,19.90
2018-05-29T02:42:14.312Z,19.90
2018-05-29T02:44:41.831Z,19.90
2018-05-29T02:47:10.157Z,19.80
2018-05-29T02:49:37.684Z,19.80
2018-05-29T02:52:05.232Z,19.80
2018-05-29T02:54:33.530Z,19.80
2018-05-29T02:57:01.391Z,19.80
2018-05-29T02:59:28.899Z,19.70
2018-05-29T03:01:56.417Z,19.60
2018-05-29T03:04:23.937Z,19.60
2018-05-29T03:06:52.246Z,19.70
2018-05-29T03:09:19.814Z,19.70
2018-05-29T03:11:47.377Z,19.70
2018-05-29T03:14:14.891Z,19.70
2018-05-29T03:16:43.191Z,19.50
2018-05-29T03:19:10.720Z,19.50
2018-05-29T03:21:39.000Z,19.40
2018-05-29T03:24:06.518Z,19.40
2018-05-29T03:26:34.077Z,19.30
2018-05-29T03:29:01.565Z,19.30
2018-05-29T03:31:29.859Z,19.30
2018-05-29T03:33:57.398Z,19.30
2018-05-29T03:36:25.675Z,19.20
2018-05-29T03:38:53.961Z,19.20
2018-05-29T03:41:21.489Z,19.10
2018-05-29T03:43:49.078Z,19.10
2018-05-29T03:46:16.622Z,19.10
2018-05-29T03:48:44.914Z,19.20
2018-05-29T03:51:13.248Z,19.30
2018-05-29T03:53:40.814Z,19.20
2018-05-29T03:56:08.432Z,19.20
2018-05-29T03:58:36.089Z,19.10
2018-05-29T04:01:03.600Z,19.10
2018-05-29T04:03:31.123Z,19.10
2018-05-29T04:05:58.737Z,19.10
2018-05-29T04:08:26.248Z,19.20
2018-05-29T04:10:53.942Z,19.10
2018-05-29T04:13:22.216Z,19.20
2018-05-29T04:15:49.743Z,19.20
2018-05-29T04:18:17.251Z,19.40
2018-05-29T04:20:44.781Z,19.60
2018-05-29T04:23:13.400Z,19.90
2018-05-29T04:25:40.960Z,19.90
2018-05-29T04:28:08.509Z,20.00
2018-05-29T04:30:36.069Z,19.90
2018-05-29T04:33:04.573Z,19.60
2018-05-29T04:35:32.352Z,19.60
2018-05-29T04:37:59.852Z,19.70
2018-05-29T04:40:28.154Z,19.90
2018-05-29T04:42:55.680Z,19.90
2018-05-29T04:45:24.050Z,19.80
2018-05-29T04:47:51.951Z,19.80
2018-05-29T04:50:19.474Z,19.70
2018-05-29T04:52:46.991Z,19.70
2018-05-29T04:55:14.501Z,19.80
2018-05-29T04:57:42.815Z,20.30
2018-05-29T05:00:10.345Z,20.30
2018-05-29T05:02:37.912Z,20.50
2018-05-29T05:05:05.528Z,20.80
2018-05-29T05:07:33.057Z,20.70
2018-05-29T05:10:00.582Z,20.80
2018-05-29T05:12:28.215Z,21.40
2018-05-29T05:14:55.774Z,22.50
2018-05-29T05:17:23.244Z,23.00
2018-05-29T05:19:51.629Z,24.90
2018-05-29T05:22:19.933Z,25.00
2018-05-29T05:24:47.448Z,25.00
2018-05-29T05:27:15.851Z,25.30
2018-05-29T05:29:43.550Z,25.30
2018-05-29T05:32:11.096Z,25.70
2018-05-29T05:34:38.622Z,26.60
2018-05-29T05:37:07.913Z,26.80
2018-05-29T05:39:36.205Z,26.80
2018-05-29T05:42:03.796Z,26.80
2018-05-29T05:44:31.370Z,28.60
2018-05-29T05:46:58.969Z,28.40
2018-05-29T05:49:27.265Z,27.60
2018-05-29T05:51:54.825Z,27.50
2018-05-29T05:54:22.675Z,27.90
2018-05-29T05:56:50.228Z,28.90
2018-05-29T05:59:17.769Z,28.30
2018-05-29T06:01:45.319Z,27.70
2018-05-29T06:04:12.837Z,27.10
2018-05-29T06:06:40.368Z,27.20
2018-05-29T06:09:07.914Z,26.70
2018-05-29T06:11:36.191Z,25.60
2018-05-29T06:14:04.511Z,25.40
2018-05-29T06:16:32.022Z,25.40
2018-05-29T06:19:00.328Z,26.00
2018-05-29T06:21:27.866Z,25.90
2018-05-29T06:23:55.452Z,26.20
2018-05-29T06:26:22.959Z,26.10
2018-05-29T06:28:51.256Z,26.20
2018-05-29T06:31:18.777Z,26.20
2018-05-29T06:33:46.295Z,26.00
2018-05-29T06:36:13.859Z,25.70
2018-05-29T06:38:41.399Z,26.00
2018-05-29T06:41:09.284Z,26.20
2018-05-29T06:43:36.852Z,27.30
2018-05-29T06:46:04.376Z,26.80
2018-05-29T06:48:31.932Z,27.70
2018-05-29T06:50:59.509Z,26.80
2018-05-29T06:53:27.345Z,26.60
2018-05-29T06:55:55.659Z,27.10
2018-05-29T06:58:23.233Z,27.10
2018-05-29T07:00:50.831Z,26.20
2018-05-29T07:03:18.347Z,27.80
2018-05-29T07:05:46.190Z,27.70
2018-05-29T07:08:13.750Z,28.60
2018-05-29T07:10:41.284Z,27.10
2018-05-29T07:13:09.601Z,27.60
2018-05-29T07:15:37.159Z,27.60
2018-05-29T07:18:04.716Z,28.30
2018-05-29T07:20:32.248Z,26.90
2018-05-29T07:22:59.817Z,27.50
2018-05-29T07:25:27.436Z,27.90
2018-05-29T07:27:54.949Z,27.90
2018-05-29T07:30:22.466Z,28.70
2018-05-29T07:32:50.007Z,28.80
2018-05-29T07:35:17.533Z,28.00
2018-05-29T07:37:45.041Z,28.70
2018-05-29T07:40:12.570Z,30.10
2018-05-29T07:42:40.215Z,29.10
2018-05-29T07:45:07.754Z,28.00
2018-05-29T07:47:35.272Z,27.90
2018-05-29T07:50:02.799Z,28.40
2018-05-29T07:52:30.619Z,30.10
2018-05-29T07:54:58.142Z,29.30
2018-05-29T07:57:26.539Z,28.50
2018-05-29T07:59:54.061Z,28.50
2018-05-29T08:02:21.581Z,28.00
2018-05-29T08:04:49.231Z,29.60
2018-05-29T08:07:16.755Z,28.50
2018-05-29T08:09:45.034Z,28.80
2018-05-29T08:12:13.514Z,30.10
2018-05-29T08:14:41.938Z,28.60
2018-05-29T08:17:10.529Z,28.60
2018-05-29T08:19:38.110Z,29.90
2018-05-29T08:22:05.618Z,28.80
2018-05-29T08:24:33.173Z,29.90
2018-05-29T08:27:01.463Z,28.40
2018-05-29T08:29:29.001Z,28.40
2018-05-29T08:31:56.527Z,29.40
2018-05-29T08:34:24.129Z,29.70
2018-05-29T08:36:51.689Z,29.10
2018-05-29T08:39:19.261Z,29.10
2018-05-29T08:41:46.762Z,30.70
2018-05-29T08:44:15.048Z,29.50
2018-05-29T08:46:43.355Z,28.10
2018-05-29T08:49:10.932Z,28.10
2018-05-29T08:51:38.470Z,29.10
2018-05-29T08:54:05.985Z,29.50
2018-05-29T08:56:34.269Z,29.70
2018-05-29T08:59:02.609Z,29.90
2018-05-29T09:01:30.139Z,29.80
2018-05-29T09:03:57.813Z,30.80
2018-05-29T09:06:25.302Z,31.00
2018-05-29T09:08:52.893Z,31.50
2018-05-29T09:11:20.429Z,30.80
2018-05-29T09:13:48.965Z,30.10
2018-05-29T09:16:16.520Z,30.00
2018-05-29T09:18:44.150Z,30.00
2018-05-29T09:21:12.450Z,30.90
2018-05-29T09:23:40.005Z,30.90
2018-05-29T09:26:07.901Z,31.40
2018-05-29T09:28:35.412Z,31.10
2018-05-29T09:31:02.946Z,29.70
2018-05-29T09:33:31.243Z,27.90
2018-05-29T09:35:59.571Z,27.40
2018-05-29T09:38:27.185Z,27.40
2018-05-29T09:40:54.705Z,27.50
2018-05-29T09:43:22.276Z,27.70
2018-05-29T09:45:50.955Z,27.80
2018-05-29T09:48:18.564Z,27.80
2018-05-29T09:50:46.052Z,28.40
2018-05-29T09:53:13.677Z,28.50
2018-05-29T09:55:41.288Z,28.90
2018-05-29T09:58:08.961Z,29.90
2018-05-29T10:00:46.461Z,28.90
2018-05-29T10:03:14.816Z,29.20
2018-05-29T10:05:42.357Z,29.20
2018-05-29T10:08:09.915Z,28.90
2018-05-29T10:10:37.441Z,28.10
2018-05-29T10:13:04.987Z,28.10
2018-05-29T10:15:32.524Z,28.80
2018-05-29T10:18:00.937Z,29.20
2018-05-29T10:20:28.469Z,29.20
2018-05-29T10:22:56.003Z,28.50
2018-05-29T10:25:24.345Z,29.80
2018-05-29T10:27:51.873Z,29.80
2018-05-29T10:30:19.453Z,30.80
2018-05-29T10:32:47.014Z,30.00
2018-05-29T10:35:14.671Z,30.30
2018-05-29T10:37:42.215Z,30.10
2018-05-29T10:40:09.733Z,30.70
2018-05-29T10:42:37.300Z,30.80
2018-05-29T10:45:05.643Z,30.20
2018-05-29T10:47:33.549Z,30.20
2018-05-29T10:50:01.921Z,29.90
2018-05-29T10:52:30.318Z,30.20
2018-05-29T10:54:58.684Z,30.40
2018-05-29T10:57:26.950Z,30.20
2018-05-29T10:59:55.292Z,30.20
2018-05-29T11:02:22.817Z,30.10
2018-05-29T11:04:50.337Z,30.20
2018-05-29T11:07:18.631Z,29.80
2018-05-29T11:09:46.151Z,29.80
2018-05-29T11:12:13.777Z,30.00
2018-05-29T11:14:41.340Z,30.60
2018-05-29T11:17:08.915Z,31.30
2018-05-29T11:19:36.453Z,31.70
2018-05-29T11:22:04.171Z,31.80
2018-05-29T11:24:31.685Z,32.00
2018-05-29T11:26:59.221Z,32.00
2018-05-29T11:29:26.856Z,30.90
2018-05-29T11:31:54.410Z,31.20
2018-05-29T11:34:22.714Z,30.40
2018-05-29T11:36:50.249Z,30.40
2018-05-29T11:39:17.778Z,29.90
2018-05-29T11:41:45.299Z,30.00
2018-05-29T11:44:12.858Z,30.00
2018-05-29T11:46:40.377Z,30.00
2018-05-29T11:49:08.692Z,29.30
2018-05-29T11:51:36.243Z,29.20
2018-05-29T11:54:03.908Z,29.70
2018-05-29T11:56:31.608Z,29.30
2018-05-29T11:58:59.139Z,29.30
2018-05-29T12:01:26.635Z,28.90
2018-05-29T12:03:54.168Z,29.10
2018-05-29T12:06:21.696Z,29.70
2018-05-29T12:08:49.523Z,29.50
2018-05-29T12:11:17.834Z,28.90
2018-05-29T12:13:45.367Z,28.90
2018-05-29T12:16:13.665Z,29.10
2018-05-29T12:18:41.312Z,29.10
2018-05-29T12:21:09.645Z,29.90
2018-05-29T12:23:37.186Z,29.90
2018-05-29T12:26:04.792Z,29.60
2018-05-29T12:28:33.180Z,29.60
2018-05-29T12:31:00.837Z,29.60
2018-05-29T12:33:29.164Z,30.30
2018-05-29T12:35:56.767Z,30.30
2018-05-29T12:38:25.051Z,30.00
2018-05-29T12:40:52.620Z,30.00
2018-05-29T12:43:20.157Z,30.10
2018-05-29T12:45:48.577Z,30.20
2018-05-29T12:48:16.118Z,30.10
2018-05-29T12:50:43.684Z,30.00
2018-05-29T12:53:11.194Z,30.10
2018-05-29T12:55:39.529Z,30.40
2018-05-29T12:58:07.051Z,30.40
2018-05-29T13:00:35.353Z,30.20
2018-05-29T13:03:02.974Z,30.20
2018-05-29T13:05:31.445Z,30.10
2018-05-29T13:07:58.901Z,30.20
2018-05-29T13:10:27.224Z,29.40
2018-05-29T13:12:54.785Z,29.40
2018-05-29T13:15:22.386Z,29.70
2018-05-29T13:17:49.938Z,29.60
2018-05-29T13:20:17.498Z,29.70
2018-05-29T13:22:45.029Z,29.80
2018-05-29T13:25:12.588Z,29.70
2018-05-29T13:27:40.192Z,29.60
2018-05-29T13:30:07.666Z,29.60
2018-05-29T13:32:35.233Z,29.70
2018-05-29T13:35:02.715Z,29.60
2018-05-29T13:37:30.232Z,29.70
2018-05-29T13:39:58.558Z,29.50
2018-05-29T13:42:26.063Z,29.60
2018-05-29T13:44:54.363Z,28.00
2018-05-29T13:47:21.902Z,27.90
2018-05-29T13:49:50.190Z,26.30
2018-05-29T13:52:17.762Z,26.30
2018-05-29T13:54:45.260Z,25.80
2018-05-29T13:57:12.833Z,25.50
2018-05-29T13:59:40.407Z,25.30
2018-05-29T14:02:08.709Z,24.90
2018-05-29T14:04:42.616Z,24.90
2018-05-29T14:07:10.169Z,24.80
2018-05-29T14:09:37.708Z,24.40
2018-05-29T14:12:06.071Z,23.90
2018-05-29T14:14:34.480Z,23.80
2018-05-29T14:17:01.983Z,23.80
2018-05-29T14:19:29.488Z,23.80
2018-05-29T14:21:57.054Z,23.70
2018-05-29T14:24:24.624Z,23.70
2018-05-29T14:26:52.306Z,23.70
2018-05-29T14:29:19.877Z,23.60
2018-05-29T14:31:47.775Z,23.60
2018-05-29T14:34:16.174Z,23.80
2018-05-29T14:36:43.820Z,23.70
2018-05-29T14:39:11.374Z,23.80
2018-05-29T14:41:39.071Z,23.80
2018-05-29T14:44:06.666Z,23.90
2018-05-29T14:46:34.130Z,23.60
2018-05-29T14:49:01.629Z,23.40
2018-05-29T14:51:29.206Z,22.90
2018-05-29T14:53:56.745Z,22.50
2018-05-29T14:56:24.317Z,22.30
2018-05-29T14:58:51.845Z,22.40
2018-05-29T15:01:20.142Z,22.10
2018-05-29T15:03:47.730Z,22.10
2018-05-29T15:06:15.311Z,22.00
2018-05-29T15:08:42.825Z,21.60
2018-05-29T15:11:10.353Z,21.60
2018-05-29T15:13:38.628Z,21.60
2018-05-29T15:16:07.042Z,21.70
2018-05-29T15:18:34.585Z,21.70
2018-05-29T15:21:02.884Z,22.00
2018-05-29T15:23:30.393Z,21.90
2018-05-29T15:25:58.714Z,22.10
2018-05-29T15:28:26.211Z,22.10
2018-05-29T15:30:54.573Z,22.30
2018-05-29T15:33:22.161Z,22.30
2018-05-29T15:35:49.640Z,22.50
2018-05-29T15:38:17.240Z,22.50
2018-05-29T15:40:44.826Z,22.60
2018-05-29T15:43:12.411Z,22.60
2018-05-29T15:45:40.171Z,22.60
2018-05-29T15:48:08.503Z,22.70
2018-05-29T15:50:36.018Z,22.60
2018-05-29T15:53:03.561Z,23.20
2018-05-29T15:55:31.103Z,23.00
2018-05-29T15:57:58.801Z,22.70
2018-05-29T16:00:26.322Z,22.30
2018-05-29T16:02:53.836Z,22.30
2018-05-29T16:05:21.505Z,22.20
2018-05-29T16:07:49.040Z,22.20
2018-05-29T16:10:16.632Z,22.50
2018-05-29T16:12:44.168Z,22.40
2018-05-29T16:15:11.836Z,22.30
2018-05-29T16:17:39.354Z,22.50
2018-05-29T16:20:06.995Z,22.10
2018-05-29T16:22:35.331Z,22.10
2018-05-29T16:25:02.910Z,22.10
2018-05-29T16:27:30.458Z,21.50
2018-05-29T16:29:58.076Z,21.20
2018-05-29T16:32:25.617Z,21.20
2018-05-29T16:34:54.543Z,21.00
2018-05-29T16:37:22.106Z,20.90
2018-05-29T16:39:49.657Z,20.70
2018-05-29T16:42:17.325Z,20.90
2018-05-29T16:44:44.913Z,21.00
2018-05-29T16:47:13.429Z,20.70
2018-05-29T16:49:41.005Z,20.40
2018-05-29T16:52:08.570Z,20.90
2018-05-29T16:54:36.464Z,20.80
2018-05-29T16:57:03.968Z,20.70
2018-05-29T16:59:32.410Z,20.90
2018-05-29T17:01:59.989Z,20.90
2018-05-29T17:04:27.585Z,21.00
2018-05-29T17:06:55.159Z,21.30
2018-05-29T17:09:22.731Z,21.10
2018-05-29T17:11:50.513Z,21.00
2018-05-29T17:14:18.092Z,21.20
2018-05-29T17:16:46.705Z,21.40
2018-05-29T17:19:14.270Z,21.30
2018-05-29T17:21:41.877Z,21.30
2018-05-29T17:24:09.437Z,21.40
2018-05-29T17:26:37.031Z,21.50
2018-05-29T17:29:04.669Z,21.50
2018-05-29T17:31:32.970Z,21.30
2018-05-29T17:34:00.524Z,21.30
2018-05-29T17:36:28.065Z,21.30
2018-05-29T17:38:55.598Z,21.50
2018-05-29T17:41:23.102Z,21.60
2018-05-29T17:43:50.672Z,21.60
2018-05-29T17:46:18.206Z,21.60
2018-05-29T17:48:45.740Z,21.60
2018-05-29T17:51:13.345Z,21.70
2018-05-29T17:53:40.944Z,21.80
2018-05-29T17:56:08.497Z,21.80
2018-05-29T17:58:36.014Z,21.90
2018-05-29T18:01:03.566Z,21.80
2018-05-29T18:03:31.184Z,21.90
2018-05-29T18:05:59.029Z,21.90
2018-05-29T18:08:26.531Z,21.80
2018-05-29T18:10:54.876Z,21.60
2018-05-29T18:13:22.507Z,21.70
2018-05-29T18:15:50.033Z,21.70
2018-05-29T18:18:18.365Z,21.80
2018-05-29T18:20:45.943Z,21.80
2018-05-29T18:23:13.485Z,21.70
2018-05-29T18:25:41.120Z,21.50
2018-05-29T18:28:08.655Z,21.70
2018-05-29T18:30:36.208Z,21.60
2018-05-29T18:33:04.641Z,21.70
2018-05-29T18:35:32.176Z,21.70
2018-05-29T18:37:59.729Z,21.70
2018-05-29T18:40:27.256Z,21.50
2018-05-29T18:42:55.569Z,21.50
2018-05-29T18:45:23.088Z,21.50
2018-05-29T18:47:51.379Z,21.50
2018-05-29T18:50:19.706Z,21.40
2018-05-29T18:52:47.391Z,21.40
2018-05-29T18:55:15.703Z,21.50
2018-05-29T18:57:43.249Z,21.40
2018-05-29T19:00:11.584Z,21.50
2018-05-29T19:02:39.185Z,21.40
2018-05-29T19:05:07.469Z,21.30
2018-05-29T19:07:35.181Z,21.30
2018-05-29T19:10:02.720Z,21.20
2018-05-29T19:12:30.248Z,21.30
2018-05-29T19:14:57.784Z,21.20
2018-05-29T19:17:26.117Z,21.20
2018-05-29T19:19:53.655Z,21.20
2018-05-29T19:22:21.172Z,21.20
2018-05-29T19:24:49.518Z,21.30
2018-05-29T19:27:17.044Z,21.30
2018-05-29T19:29:44.585Z,21.40
2018-05-29T19:32:12.141Z,21.20
2018-05-29T19:34:40.477Z,21.10
2018-05-29T19:37:08.143Z,21.10
2018-05-29T19:39:36.036Z,21.10
2018-05-29T19:42:03.605Z,21.00
2018-05-29T19:44:31.895Z,21.20
2018-05-29T19:46:59.483Z,21.10
2018-05-29T19:49:27.040Z,21.10
2018-05-29T19:51:54.656Z,21.20
2018-05-29T19:54:22.961Z,21.10
2018-05-29T19:56:50.621Z,21.10
2018-05-29T19:59:18.117Z,21.10
2018-05-29T20:01:45.633Z,21.10
2018-05-29T20:04:13.168Z,21.30
2018-05-29T20:06:41.143Z,21.20
2018-05-29T20:09:08.675Z,21.20
2018-05-29T20:11:36.630Z,21.10
2018-05-29T20:14:04.149Z,21.10
2018-05-29T20:16:31.688Z,21.10
2018-05-29T20:18:59.288Z,21.00
2018-05-29T20:21:26.798Z,21.00
2018-05-29T20:23:54.334Z,21.00
2018-05-29T20:26:22.646Z,20.90
2018-05-29T20:28:50.240Z,20.90
2018-05-29T20:31:17.868Z,20.80
2018-05-29T20:33:45.359Z,20.80
2018-05-29T20:36:13.024Z,20.80
2018-05-29T20:38:40.836Z,20.70
2018-05-29T20:41:08.370Z,20.60
2018-05-29T20:43:36.750Z,20.50
2018-05-29T20:46:04.594Z,20.50
2018-05-29T20:48:34.967Z,20.40
2018-05-29T20:51:02.854Z,20.40
2018-05-29T20:53:30.443Z,20.40
2018-05-29T20:55:57.956Z,20.50
2018-05-29T20:58:27.607Z,20.40
2018-05-29T21:00:56.653Z,20.10
2018-05-29T21:03:24.202Z,20.10
2018-05-29T21:05:51.718Z,20.10
2018-05-29T21:08:19.299Z,20.10
2018-05-29T21:10:47.601Z,19.90
2018-05-29T21:13:15.446Z,19.90
2018-05-29T21:15:43.835Z,19.90
2018-05-29T21:18:11.345Z,19.80
2018-05-29T21:20:39.674Z,20.00
2018-05-29T21:23:07.266Z,20.00
2018-05-29T21:25:35.790Z,20.00
2018-05-29T21:28:04.055Z,20.00
2018-05-29T21:30:32.385Z,20.10
2018-05-29T21:32:59.942Z,20.00
2018-05-29T21:35:27.489Z,20.00
2018-05-29T21:37:55.054Z,20.10
2018-05-29T21:40:22.930Z,20.10
2018-05-29T21:42:50.465Z,20.00
2018-05-29T21:45:18.041Z,19.90
2018-05-29T21:47:45.620Z,19.80
2018-05-29T21:50:13.159Z,19.90
2018-05-29T21:52:41.380Z,19.80
2018-05-29T21:55:10.112Z,19.80
2018-05-29T21:57:37.666Z,19.80
2018-05-29T22:00:05.190Z,19.70
2018-05-29T22:02:32.707Z,19.80
2018-05-29T22:05:00.343Z,19.70
2018-05-29T22:07:27.867Z,19.70
2018-05-29T22:09:55.451Z,19.70
2018-05-29T22:12:23.013Z,19.80
2018-05-29T22:14:50.603Z,19.80
2018-05-29T22:17:18.132Z,19.90
2018-05-29T22:19:45.674Z,20.00
2018-05-29T22:22:13.237Z,19.90
2018-05-29T22:24:40.756Z,19.90
2018-05-29T22:27:08.308Z,19.90
2018-05-29T22:29:35.899Z,19.90
2018-05-29T22:32:04.301Z,19.90
2018-05-29T22:34:31.909Z,19.90
2018-05-29T22:36:59.461Z,19.90
2018-05-29T22:39:26.985Z,19.90
2018-05-29T22:41:54.565Z,19.90
2018-05-29T22:44:22.117Z,19.90
2018-05-29T22:46:49.640Z,19.70
2018-05-29T22:49:17.156Z,19.70
2018-05-29T22:51:44.679Z,19.60
2018-05-29T22:54:12.240Z,19.60
2018-05-29T22:56:39.796Z,19.70
2018-05-29T22:59:07.442Z,19.60
2018-05-29T23:01:34.989Z,19.80
2018-05-29T23:04:02.703Z,19.70
2018-05-29T23:06:30.318Z,19.50
2018-05-29T23:08:57.868Z,19.50
2018-05-29T23:11:25.398Z,19.40
2018-05-29T23:13:52.933Z,19.40
2018-05-29T23:16:20.500Z,19.30
2018-05-29T23:18:48.035Z,19.30
2018-05-29T23:21:15.602Z,19.30
2018-05-29T23:23:43.117Z,19.40
2018-05-29T23:26:10.651Z,19.40
2018-05-29T23:28:38.964Z,19.30
2018-05-29T23:31:06.495Z,19.30
2018-05-29T23:33:34.809Z,19.30
2018-05-29T23:36:02.347Z,19.20
2018-05-29T23:38:29.854Z,19.40
2018-05-29T23:40:57.382Z,19.40
2018-05-29T23:43:24.915Z,19.30
2018-05-29T23:45:52.617Z,19.20
2018-05-29T23:48:20.166Z,19.20
2018-05-29T23:50:47.684Z,19.20
2018-05-29T23:53:16.047Z,19.10
2018-05-29T23:55:44.476Z,19.20
2018-05-29T23:58:12.318Z,19.10
